Time;durP1;ratioP1;P1;durP2;ratioP2;P2;SDS_P1;SDS_P2;PMS_P1;PMS_P2;Temp;Humidity;BMP_temperature;BMP_pressure;BME280_temperature;BME280_humidity;BME280_pressure;Samples;Min_cycle;Max_cycle;Signal;HPM_P1;HPM_P2
2023/03/10 14:15:37;;;;;;;3.53;0.50;;;10.80;99.90;;;;;;6242386;22;20238;-81
2023/03/10 14:18:19;;;;;;;1.67;0.80;;;10.70;99.90;;;;;;6245470;23;20255;-79
2023/03/10 14:20:48;;;;;;;2.23;0.83;;;10.80;99.90;;;;;;6245315;23;20163;-79
2023/03/10 14:23:25;;;;;;;0.63;0.50;;;10.70;99.90;;;;;;6245244;23;20187;-80
2023/03/10 14:25:55;;;;;;;0.43;0.30;;;10.60;99.90;;;;;;6245706;23;20163;-77
2023/03/10 14:28:26;;;;;;;0.70;0.60;;;10.50;99.90;;;;;;6245404;23;20258;-79
2023/03/10 14:30:55;;;;;;;1.47;1.13;;;10.50;99.90;;;;;;6245326;23;20188;-77
2023/03/10 14:33:24;;;;;;;1.30;1.00;;;10.60;99.90;;;;;;6244744;23;20186;-79
2023/03/10 14:35:52;;;;;;;1.17;0.93;;;10.70;99.90;;;;;;6245093;23;20567;-78
2023/03/10 14:38:20;;;;;;;0.63;0.60;;;10.70;99.90;;;;;;6244779;23;20258;-81
2023/03/10 14:40:51;;;;;;;2.57;0.90;;;10.70;99.90;;;;;;6245560;23;20179;-78
2023/03/10 14:43:23;;;;;;;0.67;0.60;;;10.50;99.90;;;;;;6244731;23;20202;-81
2023/03/10 14:45:52;;;;;;;1.37;0.70;;;10.40;99.90;;;;;;6245506;23;20243;-79
2023/03/10 14:48:24;;;;;;;0.80;0.60;;;10.40;99.90;;;;;;6245053;23;20183;-79
2023/03/10 14:50:53;;;;;;;1.40;0.83;;;10.40;99.90;;;;;;6245503;23;20218;-78
2023/03/10 14:53:25;;;;;;;0.70;0.40;;;10.40;99.90;;;;;;6244713;23;20168;-80
2023/03/10 14:55:56;;;;;;;2.00;0.57;;;10.30;99.90;;;;;;6245170;23;20183;-80
2023/03/10 14:58:29;;;;;;;1.17;0.70;;;10.30;99.90;;;;;;6245370;23;20242;-79
2023/03/10 15:00:59;;;;;;;3.50;0.80;;;10.30;99.90;;;;;;6245579;23;20187;-79
2023/03/10 15:03:28;;;;;;;1.13;0.90;;;10.20;99.90;;;;;;6244613;23;20258;-79
2023/03/10 15:05:56;;;;;;;0.63;0.63;;;10.20;99.90;;;;;;6245562;23;20210;-78
2023/03/10 15:08:27;;;;;;;0.90;0.80;;;10.20;99.90;;;;;;6247203;23;20246;-79
2023/03/10 15:10:57;;;;;;;0.40;0.40;;;10.20;99.90;;;;;;6246273;23;20258;-79
2023/03/10 15:13:26;;;;;;;1.40;0.70;;;10.20;99.90;;;;;;6245433;22;20199;-79
2023/03/10 15:15:54;;;;;;;0.40;0.40;;;10.20;99.90;;;;;;6254018;23;20172;-77
2023/03/10 15:18:25;;;;;;;3.13;0.60;;;10.20;99.90;;;;;;6254793;23;20183;-80
2023/03/10 15:20:57;;;;;;;0.63;0.40;;;10.20;99.90;;;;;;6256113;23;20214;-80
2023/03/10 15:23:27;;;;;;;0.20;0.20;;;10.20;99.90;;;;;;6247843;23;20192;-80
2023/03/10 15:25:56;;;;;;;3.93;0.50;;;10.10;99.90;;;;;;6246205;23;20183;-78
2023/03/10 15:28:25;;;;;;;0.30;0.30;;;9.90;99.90;;;;;;6245217;23;20187;-80
2023/03/10 15:30:54;;;;;;;0.27;0.23;;;9.80;99.90;;;;;;6244551;23;20231;-78
2023/03/10 15:33:25;;;;;;;0.20;0.20;;;9.80;99.90;;;;;;6244209;23;20175;-80
2023/03/10 15:35:54;;;;;;;0.30;0.17;;;9.70;99.90;;;;;;6244742;23;20180;-81
2023/03/10 15:38:23;;;;;;;0.23;0.20;;;9.50;99.90;;;;;;6244462;23;20207;-82
2023/03/10 15:40:51;;;;;;;0.40;0.40;;;9.30;99.90;;;;;;6244475;23;20214;-77
2023/03/10 15:43:19;;;;;;;0.40;0.30;;;9.30;99.90;;;;;;6244198;23;20226;-77
2023/03/10 15:45:48;;;;;;;0.40;0.20;;;9.20;99.90;;;;;;6245118;23;20215;-79
2023/03/10 15:48:16;;;;;;;0.20;0.20;;;9.20;99.90;;;;;;6244352;23;20218;-79
2023/03/10 15:50:46;;;;;;;1.80;0.40;;;9.10;99.90;;;;;;6244880;23;20196;-78
2023/03/10 15:53:16;;;;;;;0.87;0.40;;;9.10;99.90;;;;;;6244231;23;20229;-80
2023/03/10 15:55:44;;;;;;;0.83;0.30;;;9.00;99.90;;;;;;6245080;23;20557;-79
2023/03/10 15:58:13;;;;;;;0.20;0.20;;;8.90;99.90;;;;;;6244929;23;20203;-76
2023/03/10 16:00:42;;;;;;;0.47;0.47;;;8.80;99.90;;;;;;6244209;23;20171;-79
2023/03/10 16:03:11;;;;;;;0.43;0.20;;;8.70;99.90;;;;;;6243945;23;20180;-79
2023/03/10 16:05:46;;;;;;;0.40;0.40;;;8.50;99.90;;;;;;6244742;23;20179;-79
2023/03/10 16:08:17;;;;;;;0.93;0.40;;;8.40;99.90;;;;;;6244732;23;20616;-82
2023/03/10 16:10:51;;;;;;;0.30;0.30;;;8.40;99.90;;;;;;6244076;23;20526;-79
2023/03/10 16:13:20;;;;;;;0.40;0.40;;;8.30;99.90;;;;;;6243975;22;20306;-80
2023/03/10 16:15:48;;;;;;;0.23;0.23;;;8.30;99.90;;;;;;6244819;23;20218;-79
2023/03/10 16:18:17;;;;;;;0.20;0.20;;;8.30;99.90;;;;;;6244576;23;20183;-79
2023/03/10 16:20:45;;;;;;;0.30;0.30;;;8.20;99.90;;;;;;6244341;23;20176;-80
2023/03/10 16:23:13;;;;;;;0.73;0.50;;;8.10;99.90;;;;;;6244336;23;20234;-77
2023/03/10 16:25:45;;;;;;;3.70;0.40;;;8.10;99.90;;;;;;6244787;23;20188;-81
2023/03/10 16:28:13;;;;;;;1.03;0.40;;;7.90;99.90;;;;;;6243646;23;20199;-78
2023/03/10 16:30:41;;;;;;;0.97;0.50;;;7.80;99.90;;;;;;6244286;23;20558;-79
2023/03/10 16:33:09;;;;;;;0.50;0.50;;;7.70;99.90;;;;;;6243839;23;20195;-81
2023/03/10 16:35:38;;;;;;;0.57;0.57;;;7.60;99.90;;;;;;6244901;23;20232;-80
2023/03/10 16:38:07;;;;;;;0.73;0.50;;;7.50;99.90;;;;;;6245100;23;20187;-81
2023/03/10 16:40:35;;;;;;;1.03;0.43;;;7.40;99.90;;;;;;6244785;23;20229;-79
2023/03/10 16:43:05;;;;;;;1.33;0.50;;;7.40;99.90;;;;;;6243971;23;20636;-79
2023/03/10 16:45:35;;;;;;;0.57;0.53;;;7.40;99.90;;;;;;6245415;23;20187;-79
2023/03/10 16:48:04;;;;;;;0.47;0.40;;;7.40;99.90;;;;;;6244845;23;20184;-79
2023/03/10 16:50:34;;;;;;;1.00;0.57;;;7.40;99.90;;;;;;6244183;23;20218;-82
2023/03/10 16:53:04;;;;;;;0.40;0.40;;;7.40;99.90;;;;;;6243516;23;20607;-80
2023/03/10 16:55:32;;;;;;;0.30;0.30;;;7.40;99.90;;;;;;6244080;23;20190;-81
2023/03/10 16:58:02;;;;;;;0.50;0.40;;;7.40;99.90;;;;;;6244128;23;20635;-79
2023/03/10 17:00:38;;;;;;;0.60;0.60;;;7.50;99.90;;;;;;6243975;23;20164;-79
2023/03/10 17:03:06;;;;;;;0.87;0.57;;;7.50;99.90;;;;;;6243527;23;20638;-79
2023/03/10 17:05:36;;;;;;;0.60;0.60;;;7.50;99.90;;;;;;6244793;23;20330;-80
2023/03/10 17:08:04;;;;;;;1.00;0.60;;;7.60;99.90;;;;;;6243655;23;20210;-82
2023/03/10 17:10:34;;;;;;;0.90;0.50;;;7.70;99.90;;;;;;6243870;23;20210;-80
2023/03/10 17:13:03;;;;;;;0.60;0.50;;;7.80;99.90;;;;;;6245906;22;20229;-83
2023/03/10 17:15:33;;;;;;;0.60;0.60;;;7.80;99.90;;;;;;6246662;23;20211;-80
2023/03/10 17:18:01;;;;;;;0.93;0.70;;;7.80;99.90;;;;;;6245338;23;20298;-79
2023/03/10 17:20:29;;;;;;;1.80;0.60;;;7.80;99.90;;;;;;6245912;23;20182;-81
2023/03/10 17:22:57;;;;;;;0.57;0.57;;;7.90;99.90;;;;;;6246101;23;20172;-81
2023/03/10 17:25:25;;;;;;;0.73;0.73;;;7.90;99.90;;;;;;6245468;23;20176;-79
2023/03/10 17:27:54;;;;;;;0.83;0.60;;;7.90;99.90;;;;;;6245837;23;20179;-81
2023/03/10 17:30:22;;;;;;;0.50;0.50;;;7.90;99.90;;;;;;6246743;23;20207;-80
2023/03/10 17:32:51;;;;;;;2.10;1.00;;;7.90;99.90;;;;;;6245575;23;20286;-81
2023/03/10 17:35:19;;;;;;;0.63;0.63;;;7.90;99.90;;;;;;6245643;23;20175;-81
2023/03/10 17:37:48;;;;;;;1.60;1.20;;;7.90;99.90;;;;;;6247202;23;20184;-79
2023/03/10 17:40:17;;;;;;;1.53;1.20;;;7.80;99.90;;;;;;6247253;23;20176;-80
2023/03/10 17:42:45;;;;;;;1.50;1.23;;;7.80;99.90;;;;;;6245536;23;20623;-79
2023/03/10 17:45:14;;;;;;;1.20;1.10;;;7.80;99.90;;;;;;6245878;23;20564;-81
2023/03/10 17:47:42;;;;;;;1.37;0.90;;;7.80;99.90;;;;;;6246333;23;20222;-79
2023/03/10 17:50:12;;;;;;;1.67;0.90;;;7.80;99.90;;;;;;6245988;23;20191;-80
2023/03/10 17:52:40;;;;;;;2.40;1.10;;;7.80;99.90;;;;;;6245085;23;20697;-80
2023/03/10 17:55:09;;;;;;;3.40;1.10;;;7.80;99.90;;;;;;6246111;23;20234;-81
2023/03/10 17:57:37;;;;;;;2.73;0.80;;;7.70;99.90;;;;;;6246024;23;20206;-81
2023/03/10 18:00:09;;;;;;;2.27;0.83;;;7.60;99.90;;;;;;6245925;23;20175;-79
2023/03/10 18:02:38;;;;;;;1.67;1.00;;;7.40;99.90;;;;;;6245830;23;20172;-79
2023/03/10 18:05:08;;;;;;;1.77;0.97;;;7.20;99.90;;;;;;6245628;23;20513;-80
2023/03/10 18:07:39;;;;;;;2.20;0.80;;;7.10;99.90;;;;;;6245613;23;20324;-80
2023/03/10 18:10:11;;;;;;;2.47;1.10;;;7.00;99.90;;;;;;6245827;23;20164;-79
2023/03/10 18:12:39;;;;;;;2.43;1.10;;;6.80;99.90;;;;;;6245739;23;20199;-78
2023/03/10 18:15:09;;;;;;;1.83;1.30;;;6.60;99.90;;;;;;6246415;22;20211;-78
2023/03/10 18:17:37;;;;;;;5.83;4.87;;;6.50;99.90;;;;;;6246858;23;20262;-80
2023/03/10 18:20:08;;;;;;;6.90;5.47;;;6.40;99.90;;;;;;6246203;23;20696;-78
2023/03/10 18:22:38;;;;;;;2.17;1.63;;;6.20;99.90;;;;;;6246572;23;20239;-79
2023/03/10 18:25:07;;;;;;;2.57;1.63;;;6.20;99.90;;;;;;6247265;23;20183;-78
2023/03/10 18:27:36;;;;;;;4.30;1.60;;;6.10;99.90;;;;;;6245746;23;20175;-79
2023/03/10 18:30:04;;;;;;;3.73;1.43;;;6.20;99.90;;;;;;6246048;23;20653;-79
2023/03/10 18:32:35;;;;;;;4.00;1.40;;;6.30;99.90;;;;;;6246476;23;20230;-78
2023/03/10 18:35:04;;;;;;;10.13;2.63;;;6.30;99.90;;;;;;6246587;23;20184;-82
2023/03/10 18:37:33;;;;;;;5.63;1.90;;;6.60;99.90;;;;;;6246028;23;20179;-80
2023/03/10 18:40:04;;;;;;;4.77;2.30;;;6.70;99.90;;;;;;6245794;23;20258;-80
2023/03/10 18:42:33;;;;;;;4.53;2.03;;;6.80;99.90;;;;;;6245500;23;20175;-77
2023/03/10 18:45:01;;;;;;;4.43;1.87;;;6.80;99.90;;;;;;6245295;23;20188;-79
2023/03/10 18:47:29;;;;;;;6.23;1.80;;;6.80;99.90;;;;;;6245468;23;20179;-80
2023/03/10 18:49:58;;;;;;;4.73;1.73;;;6.80;99.90;;;;;;6245898;23;20262;-80
2023/03/10 18:52:27;;;;;;;5.47;1.80;;;6.80;99.90;;;;;;6245436;23;20237;-81
2023/03/10 18:54:55;;;;;;;6.47;2.13;;;6.90;99.90;;;;;;6245317;23;20183;-78
2023/03/10 18:57:25;;;;;;;5.73;1.70;;;6.90;99.90;;;;;;6245140;23;20447;-78
2023/03/10 18:59:53;;;;;;;5.13;1.90;;;6.80;99.90;;;;;;6245177;23;20183;-80
2023/03/10 19:02:24;;;;;;;5.23;1.60;;;6.80;99.90;;;;;;6244203;23;20742;-80
2023/03/10 19:04:55;;;;;;;2.93;1.27;;;6.70;99.90;;;;;;6244879;23;20233;-79
2023/03/10 19:07:23;;;;;;;5.73;1.70;;;6.30;99.90;;;;;;6245117;23;20451;-79
2023/03/10 19:09:53;;;;;;;4.80;1.50;;;6.00;99.90;;;;;;6245337;23;20219;-81
2023/03/10 19:12:23;;;;;;;5.07;1.43;;;5.80;99.90;;;;;;6244636;23;20269;-79
2023/03/10 19:14:55;;;;;;;5.67;1.40;;;5.70;99.90;;;;;;6244804;22;20226;-81
2023/03/10 19:17:25;;;;;;;4.13;1.30;;;5.50;99.90;;;;;;6244667;23;20206;-81
2023/03/10 19:19:53;;;;;;;2.83;1.30;;;5.30;99.90;;;;;;6244169;23;20687;-80
2023/03/10 19:22:22;;;;;;;5.03;1.67;;;5.20;99.90;;;;;;6245062;23;20179;-79
2023/03/10 19:24:50;;;;;;;5.70;1.50;;;5.20;99.90;;;;;;6245048;23;20234;-80
2023/03/10 19:27:20;;;;;;;3.50;1.70;;;5.10;99.90;;;;;;6244657;23;20182;-80
2023/03/10 19:29:51;;;;;;;3.60;1.47;;;4.80;99.90;;;;;;6244667;23;20206;-78
2023/03/10 19:32:21;;;;;;;13.23;8.63;;;4.50;99.90;;;;;;6244234;23;20204;-77
2023/03/10 19:34:50;;;;;;;4.97;2.07;;;4.40;99.90;;;;;;6244245;23;20186;-79
2023/03/10 19:37:18;;;;;;;5.63;4.00;;;4.40;99.90;;;;;;6244710;23;20237;-80
2023/03/10 19:39:46;;;;;;;4.03;2.63;;;4.60;99.90;;;;;;6245106;23;20183;-79
2023/03/10 19:42:15;;;;;;;4.60;2.77;;;4.70;99.90;;;;;;6244564;23;20230;-81
2023/03/10 19:44:43;;;;;;;9.40;5.23;;;4.90;99.90;;;;;;6244221;23;20258;-79
2023/03/10 19:47:12;;;;;;;9.67;5.07;;;4.90;99.90;;;;;;6244363;23;20183;-82
2023/03/10 19:49:41;;;;;;;2.93;1.80;;;4.80;99.90;;;;;;6245496;23;20206;-81
2023/03/10 19:52:09;;;;;;;9.03;5.97;;;4.80;99.90;;;;;;6244869;23;20241;-80
2023/03/10 19:54:39;;;;;;;4.20;2.90;;;4.70;99.90;;;;;;6245135;23;20202;-81
2023/03/10 19:57:11;;;;;;;4.27;2.40;;;4.70;99.90;;;;;;6244959;23;20183;-80
2023/03/10 19:59:42;;;;;;;3.50;1.70;;;4.70;99.90;;;;;;6245117;23;20255;-81
2023/03/10 20:02:14;;;;;;;5.57;2.10;;;4.60;99.90;;;;;;6244151;23;20187;-82
2023/03/10 20:04:45;;;;;;;3.30;1.60;;;4.60;99.90;;;;;;6244840;23;20187;-81
2023/03/10 20:07:13;;;;;;;5.70;1.60;;;4.50;99.90;;;;;;6245152;23;20247;-80
2023/03/10 20:09:41;;;;;;;5.10;1.80;;;4.50;99.90;;;;;;6244618;23;20179;-81
2023/03/10 20:12:09;;;;;;;5.23;1.63;;;4.50;99.90;;;;;;6244940;23;20184;-81
2023/03/10 20:14:37;;;;;;;4.87;1.60;;;4.50;99.90;;;;;;6244384;22;20282;-80
2023/03/10 20:17:06;;;;;;;4.03;1.37;;;4.60;99.90;;;;;;6244959;23;20206;-80
2023/03/10 20:19:35;;;;;;;3.10;1.40;;;4.60;99.90;;;;;;6244603;23;20258;-81
2023/03/10 20:22:04;;;;;;;3.67;1.20;;;4.60;99.90;;;;;;6244409;23;20179;-80
2023/03/10 20:24:32;;;;;;;4.67;1.60;;;4.70;99.90;;;;;;6245368;23;20214;-80
2023/03/10 20:27:02;;;;;;;4.67;1.53;;;4.70;99.90;;;;;;6245066;23;20206;-81
2023/03/10 20:29:31;;;;;;;5.40;1.70;;;4.80;99.90;;;;;;6245512;23;20187;-80
2023/03/10 20:31:59;;;;;;;4.43;1.50;;;4.80;99.90;;;;;;6243991;23;20531;-81
2023/03/10 20:34:28;;;;;;;6.33;2.00;;;4.90;99.90;;;;;;6246013;23;20207;-80
2023/03/10 20:36:56;;;;;;;7.13;1.90;;;4.90;99.90;;;;;;6246637;23;20254;-80
2023/03/10 20:39:25;;;;;;;4.90;1.80;;;5.10;99.90;;;;;;6258483;23;20229;-80
2023/03/10 20:41:54;;;;;;;6.37;2.10;;;5.20;99.90;;;;;;6258471;23;20262;-79
2023/03/10 20:44:22;;;;;;;9.07;2.10;;;5.20;99.90;;;;;;6259260;23;20761;-80
2023/03/10 20:46:50;;;;;;;4.13;1.87;;;5.20;99.90;;;;;;6250136;23;20233;-79
2023/03/10 20:49:19;;;;;;;6.53;2.50;;;5.30;99.90;;;;;;6247868;23;20190;-81
2023/03/10 20:51:47;;;;;;;6.63;2.33;;;5.40;99.90;;;;;;6246874;23;20233;-81
2023/03/10 20:54:17;;;;;;;4.63;2.20;;;5.50;99.90;;;;;;6246637;23;20241;-79
2023/03/10 20:56:46;;;;;;;8.53;1.90;;;5.50;99.90;;;;;;6247116;23;20258;-81
2023/03/10 20:59:18;;;;;;;6.27;1.97;;;5.50;99.90;;;;;;6246614;23;20545;-81
2023/03/10 21:01:46;;;;;;;5.37;1.83;;;5.60;99.90;;;;;;6246147;23;20681;-80
2023/03/10 21:04:14;;;;;;;5.03;1.83;;;5.60;99.90;;;;;;6246082;23;20241;-79
2023/03/10 21:06:43;;;;;;;6.27;2.00;;;5.70;99.90;;;;;;6246361;23;20206;-80
2023/03/10 21:09:11;;;;;;;7.53;2.00;;;5.80;99.90;;;;;;6246320;23;20180;-80
2023/03/10 21:11:40;;;;;;;4.63;1.77;;;5.90;99.90;;;;;;6246755;23;20198;-80
2023/03/10 21:14:10;;;;;;;4.23;1.50;;;5.80;99.90;;;;;;6245966;22;20242;-80
2023/03/10 21:16:40;;;;;;;8.90;1.50;;;5.70;99.90;;;;;;6247390;23;20199;-80
2023/03/10 21:19:10;;;;;;;3.43;1.53;;;5.60;99.90;;;;;;6249951;23;20194;-80
2023/03/10 21:21:38;;;;;;;3.40;1.20;;;5.50;99.90;;;;;;6251756;23;20180;-82
2023/03/10 21:24:06;;;;;;;6.30;1.63;;;5.40;99.90;;;;;;6251772;23;20190;-80
2023/03/10 21:26:35;;;;;;;2.80;1.13;;;5.30;99.90;;;;;;6250279;23;20181;-80
2023/03/10 21:29:04;;;;;;;4.20;1.30;;;5.30;99.90;;;;;;6252519;23;20187;-79
2023/03/10 21:31:34;;;;;;;2.80;1.27;;;5.20;99.90;;;;;;6249479;23;20179;-79
2023/03/10 21:34:03;;;;;;;4.27;1.77;;;5.20;99.90;;;;;;6257337;23;20218;-78
2023/03/10 21:36:31;;;;;;;2.27;1.90;;;5.00;99.90;;;;;;6251906;23;20300;-77
2023/03/10 21:38:59;;;;;;;3.60;2.10;;;4.10;99.90;;;;;;6247155;23;20266;-78
2023/03/10 21:41:29;;;;;;;3.70;2.23;;;3.60;99.90;;;;;;6247202;23;20180;-81
2023/03/10 21:43:59;;;;;;;1.93;1.83;;;3.20;99.90;;;;;;6245998;23;20710;-79
2023/03/10 21:46:27;;;;;;;2.30;2.00;;;3.00;99.90;;;;;;6246700;23;20180;-78
2023/03/10 21:48:57;;;;;;;2.53;2.30;;;3.00;99.90;;;;;;6245488;23;20190;-80
2023/03/10 21:51:26;;;;;;;3.43;2.23;;;3.00;99.90;;;;;;6245819;23;20183;-81
2023/03/10 21:53:54;;;;;;;4.00;2.10;;;3.10;99.90;;;;;;6245898;23;20286;-81
2023/03/10 21:56:27;;;;;;;3.40;2.07;;;3.30;99.90;;;;;;6245402;23;20180;-78
2023/03/10 21:58:56;;;;;;;2.50;1.90;;;3.40;99.90;;;;;;6245766;23;20182;-80
2023/03/10 22:01:26;;;;;;;1.90;1.80;;;3.40;99.90;;;;;;6245926;23;20183;-80
2023/03/10 22:03:57;;;;;;;3.33;2.70;;;3.50;99.90;;;;;;6246097;23;20176;-81
2023/03/10 22:06:27;;;;;;;2.57;2.17;;;3.40;99.90;;;;;;6246318;23;20187;-80
2023/03/10 22:08:56;;;;;;;4.27;3.63;;;3.50;99.90;;;;;;6245908;23;20618;-79
2023/03/10 22:11:24;;;;;;;3.07;2.73;;;3.40;99.90;;;;;;6245926;23;20187;-79
2023/03/10 22:13:53;;;;;;;4.07;3.43;;;3.40;99.90;;;;;;6244597;22;20262;-79
2023/03/10 22:16:21;;;;;;;2.67;2.43;;;3.40;99.90;;;;;;6245958;23;20180;-79
2023/03/10 22:18:50;;;;;;;8.30;6.83;;;3.50;99.90;;;;;;6246000;23;20263;-81
2023/03/10 22:21:18;;;;;;;2.93;2.30;;;3.50;99.90;;;;;;6245890;23;20585;-79
2023/03/10 22:23:50;;;;;;;4.93;3.17;;;3.60;99.90;;;;;;6245821;23;20263;-81
2023/03/10 22:26:18;;;;;;;5.93;4.87;;;3.80;99.90;;;;;;6245654;23;20156;-79
2023/03/10 22:28:46;;;;;;;2.07;1.80;;;4.00;99.90;;;;;;6246226;23;20503;-81
2023/03/10 22:31:15;;;;;;;1.67;1.57;;;4.00;99.90;;;;;;6244313;23;20187;-82
2023/03/10 22:33:43;;;;;;;1.60;1.50;;;4.00;99.90;;;;;;6245607;23;20277;-78
2023/03/10 22:36:12;;;;;;;1.67;1.53;;;4.00;99.90;;;;;;6245981;23;20184;-79
2023/03/10 22:38:40;;;;;;;1.70;1.60;;;4.00;99.90;;;;;;6245439;23;20179;-81
2023/03/10 22:41:11;;;;;;;2.37;1.67;;;3.90;99.90;;;;;;6245519;23;20180;-81
2023/03/10 22:43:40;;;;;;;1.37;1.27;;;4.00;99.90;;;;;;6244957;23;20176;-79
2023/03/10 22:46:10;;;;;;;1.70;1.30;;;3.90;99.90;;;;;;6245594;23;20504;-80
2023/03/10 22:48:38;;;;;;;1.50;1.40;;;3.90;99.90;;;;;;6245522;23;20186;-82
2023/03/10 22:51:08;;;;;;;2.73;1.50;;;3.80;99.90;;;;;;6245663;23;20230;-78
2023/03/10 22:53:38;;;;;;;2.77;2.07;;;3.70;99.90;;;;;;6244242;23;20665;-80
2023/03/10 22:56:07;;;;;;;1.50;1.40;;;3.70;99.90;;;;;;6244922;23;20186;-81
2023/03/10 22:58:37;;;;;;;1.53;1.30;;;3.60;99.90;;;;;;6245067;23;20187;-80
2023/03/10 23:01:05;;;;;;;1.37;1.20;;;3.50;99.90;;;;;;6244429;23;20730;-80
2023/03/10 23:03:35;;;;;;;1.43;1.33;;;3.50;99.90;;;;;;6244201;23;20182;-80
2023/03/10 23:06:06;;;;;;;1.50;1.40;;;3.40;99.90;;;;;;6245172;23;20210;-80
2023/03/10 23:08:36;;;;;;;1.93;1.50;;;3.40;99.90;;;;;;6243924;23;20187;-79
2023/03/10 23:11:12;;;;;;;1.53;1.43;;;3.40;99.90;;;;;;6245134;23;20183;-79
2023/03/10 23:13:42;;;;;;;1.50;1.40;;;3.40;99.90;;;;;;6244181;22;20249;-81
2023/03/10 23:16:11;;;;;;;1.60;1.37;;;3.40;99.90;;;;;;6244140;23;20203;-80
2023/03/10 23:18:39;;;;;;;1.30;1.20;;;3.10;99.90;;;;;;6244414;23;20183;-79
2023/03/10 23:21:08;;;;;;;1.60;1.20;;;2.50;99.90;;;;;;6244546;23;20180;-80
2023/03/10 23:23:38;;;;;;;2.57;1.50;;;2.20;99.90;;;;;;6244060;23;20631;-80
2023/03/10 23:26:06;;;;;;;1.37;1.27;;;2.00;99.90;;;;;;6244296;23;20411;-81
2023/03/10 23:28:34;;;;;;;1.50;1.40;;;1.90;99.90;;;;;;6244619;23;20180;-80
2023/03/10 23:31:07;;;;;;;1.83;1.40;;;1.90;99.90;;;;;;6244966;23;20483;-79
2023/03/10 23:33:36;;;;;;;1.83;1.50;;;1.80;99.90;;;;;;6243766;23;20199;-80
2023/03/10 23:36:05;;;;;;;1.67;1.40;;;1.90;99.90;;;;;;6244903;23;20286;-81
2023/03/10 23:38:34;;;;;;;1.70;1.20;;;1.90;99.90;;;;;;6244334;23;20898;-79
2023/03/10 23:41:02;;;;;;;1.40;1.30;;;1.90;99.90;;;;;;6244481;23;20183;-81
2023/03/10 23:43:33;;;;;;;2.30;1.57;;;2.00;99.90;;;;;;6243766;23;20722;-79
2023/03/10 23:46:03;;;;;;;2.33;1.57;;;2.00;99.90;;;;;;6244746;23;20882;-80
2023/03/10 23:48:33;;;;;;;1.63;1.50;;;2.00;99.90;;;;;;6244562;23;20465;-79
2023/03/10 23:51:02;;;;;;;2.80;1.63;;;2.10;99.90;;;;;;6244688;23;20179;-81
2023/03/10 23:53:31;;;;;;;9.37;7.47;;;2.10;99.90;;;;;;6243836;23;20175;-80
2023/03/10 23:55:59;;;;;;;2.27;1.97;;;2.10;99.90;;;;;;6244493;23;20200;-81
2023/03/10 23:58:28;;;;;;;3.50;2.30;;;2.10;99.90;;;;;;6244576;23;21078;-79
